createdAt,value
2022-10-08T00:01:12.504Z,108.95
2022-10-08T00:03:43.431Z,101.65
2022-10-08T00:06:15.107Z,115.97
2022-10-08T00:08:53.974Z,92.60
2022-10-08T00:11:23.639Z,105.03
2022-10-08T00:13:51.609Z,106.55
2022-10-08T00:16:30.323Z,101.35
2022-10-08T00:19:01.313Z,114.63
2022-10-08T00:21:31.674Z,115.38
2022-10-08T00:23:59.241Z,112.35
2022-10-08T00:26:28.844Z,117.32
2022-10-08T00:28:57.416Z,133.70
2022-10-08T00:31:28.858Z,122.55
2022-10-08T00:33:57.239Z,132.05
2022-10-08T00:36:26.966Z,152.10
2022-10-08T00:38:56.734Z,162.90
2022-10-08T00:41:25.614Z,135.27
2022-10-08T00:43:55.091Z,130.20
2022-10-08T00:46:25.324Z,133.27
2022-10-08T00:49:01.795Z,154.88
2022-10-08T00:51:29.972Z,135.90
2022-10-08T00:53:56.657Z,116.65
2022-10-08T00:56:24.301Z,116.68
2022-10-08T00:58:52.184Z,121.78
2022-10-08T01:01:19.933Z,146.90
2022-10-08T01:03:46.603Z,141.23
2022-10-08T01:06:20.447Z,140.32
2022-10-08T01:09:02.260Z,119.95
2022-10-08T01:11:44.302Z,128.00
2022-10-08T01:14:39.564Z,125.18
2022-10-08T01:17:22.430Z,118.00
2022-10-08T01:20:05.569Z,100.63
2022-10-08T01:22:47.769Z,100.85
2022-10-08T01:25:38.329Z,135.02
2022-10-08T01:28:21.359Z,114.40
2022-10-08T01:31:15.787Z,121.85
2022-10-08T01:33:50.931Z,101.75
2022-10-08T01:36:19.968Z,137.55
2022-10-08T01:38:53.357Z,130.65
2022-10-08T01:41:24.905Z,120.85
2022-10-08T01:44:01.893Z,126.53
2022-10-08T01:46:31.760Z,112.90
2022-10-08T01:49:04.612Z,110.72
2022-10-08T01:51:40.871Z,119.05
2022-10-08T01:56:39.936Z,120.97
2022-10-08T01:59:18.292Z,124.22
2022-10-08T02:01:59.996Z,132.82
2022-10-08T02:04:33.219Z,124.78
2022-10-08T02:07:02.623Z,117.32
2022-10-08T02:09:32.404Z,148.27
2022-10-08T02:11:59.072Z,130.32
2022-10-08T02:14:27.951Z,111.50
2022-10-08T02:17:17.824Z,142.93
2022-10-08T02:19:53.047Z,114.88
2022-10-08T02:22:24.357Z,149.95
2022-10-08T02:24:57.256Z,121.47
2022-10-08T02:27:33.328Z,129.35
2022-10-08T02:30:11.119Z,126.68
2022-10-08T02:32:51.081Z,110.28
2022-10-08T02:35:25.409Z,125.13
2022-10-08T02:37:59.668Z,133.40
2022-10-08T02:40:30.479Z,122.88
2022-10-08T02:43:05.449Z,135.60
2022-10-08T02:45:38.179Z,120.78
2022-10-08T02:48:11.875Z,144.25
2022-10-08T02:50:43.218Z,130.85
2022-10-08T02:53:14.640Z,139.32
2022-10-08T02:55:54.813Z,150.82
2022-10-08T02:58:22.030Z,139.20
2022-10-08T03:01:06.089Z,138.52
2022-10-08T03:03:36.843Z,161.00
2022-10-08T03:06:08.857Z,125.07
2022-10-08T03:08:41.142Z,145.70
2022-10-08T03:11:07.837Z,139.40
2022-10-08T03:13:39.643Z,122.40
2022-10-08T03:16:11.460Z,124.32
2022-10-08T03:18:39.000Z,141.75
2022-10-08T03:21:08.861Z,140.25
2022-10-08T03:23:35.837Z,147.32
2022-10-08T03:26:02.450Z,117.57
2022-10-08T03:28:29.137Z,126.85
2022-10-08T03:30:55.910Z,138.02
2022-10-08T03:33:23.622Z,130.77
2022-10-08T03:35:50.368Z,133.50
2022-10-08T03:38:17.476Z,128.93
2022-10-08T03:40:54.791Z,125.03
2022-10-08T03:43:22.086Z,128.82
2022-10-08T03:45:52.375Z,132.98
2022-10-08T03:48:20.595Z,130.07
2022-10-08T03:50:57.262Z,123.03
2022-10-08T03:53:25.166Z,116.47
2022-10-08T03:55:52.400Z,131.60
2022-10-08T03:58:19.662Z,128.95
2022-10-08T04:01:03.394Z,142.25
2022-10-08T04:03:31.449Z,130.60
2022-10-08T04:05:58.481Z,139.10
2022-10-08T04:08:26.156Z,141.05
2022-10-08T04:10:56.391Z,162.32
2022-10-08T04:13:26.497Z,148.70
2022-10-08T04:15:53.144Z,145.50
2022-10-08T04:18:19.760Z,145.35
2022-10-08T04:20:46.405Z,138.23
2022-10-08T04:23:13.085Z,136.45
2022-10-08T04:25:49.268Z,116.35
2022-10-08T04:28:15.908Z,129.80
2022-10-08T04:30:42.617Z,130.05
2022-10-08T04:33:09.401Z,123.07
2022-10-08T04:35:38.276Z,137.85
2022-10-08T04:38:04.874Z,128.32
2022-10-08T04:40:31.492Z,124.97
2022-10-08T04:42:58.355Z,123.38
2022-10-08T04:45:24.968Z,116.68
2022-10-08T04:47:51.614Z,116.68
2022-10-08T04:50:18.239Z,109.07
2022-10-08T04:52:45.271Z,108.78
2022-10-08T04:55:12.081Z,111.28
2022-10-08T04:57:38.704Z,105.72
2022-10-08T05:00:18.414Z,111.90
2022-10-08T05:02:46.136Z,115.30
2022-10-08T05:05:13.055Z,111.35
2022-10-08T05:07:39.692Z,109.40
2022-10-08T05:10:06.642Z,116.25
2022-10-08T05:12:33.471Z,119.05
2022-10-08T05:15:00.165Z,116.65
2022-10-08T05:17:26.965Z,109.22
2022-10-08T05:19:53.668Z,119.18
2022-10-08T05:22:20.307Z,120.35
2022-10-08T05:24:46.904Z,115.75
2022-10-08T05:27:13.538Z,111.82
2022-10-08T05:29:40.154Z,105.70
2022-10-08T05:32:10.127Z,111.50
2022-10-08T05:34:36.760Z,107.10
2022-10-08T05:37:03.421Z,118.45
2022-10-08T05:39:30.295Z,112.47
2022-10-08T05:41:56.916Z,110.50
2022-10-08T05:44:23.565Z,117.38
2022-10-08T05:46:50.264Z,112.55
2022-10-08T05:49:23.154Z,111.20
2022-10-08T05:51:50.618Z,123.20
2022-10-08T05:54:18.761Z,105.93
2022-10-08T05:56:45.650Z,105.82
2022-10-08T05:59:27.634Z,97.20
2022-10-08T06:01:54.315Z,110.25
2022-10-08T06:04:21.082Z,100.25
2022-10-08T06:06:48.035Z,109.47
2022-10-08T06:09:18.308Z,96.45
2022-10-08T06:11:45.651Z,104.10
2022-10-08T06:14:14.071Z,103.35
2022-10-08T06:16:41.139Z,102.50
2022-10-08T06:19:08.536Z,104.63
2022-10-08T06:21:36.220Z,108.40
2022-10-08T06:24:05.525Z,97.50
2022-10-08T06:26:36.612Z,101.53
2022-10-08T06:29:05.848Z,104.03
2022-10-08T06:31:34.366Z,112.15
2022-10-08T06:34:04.116Z,110.40
2022-10-08T06:36:31.707Z,100.63
2022-10-08T06:39:00.368Z,102.00
2022-10-08T06:41:30.424Z,99.45
2022-10-08T06:43:57.192Z,97.10
2022-10-08T06:46:24.035Z,104.47
2022-10-08T06:48:50.892Z,100.47
2022-10-08T06:51:18.810Z,103.97
2022-10-08T06:53:51.550Z,100.63
2022-10-08T06:56:18.181Z,96.75
2022-10-08T06:58:46.053Z,106.03
2022-10-08T07:01:17.372Z,97.70
2022-10-08T07:03:44.441Z,86.40
2022-10-08T07:06:12.755Z,88.07
2022-10-08T07:08:40.081Z,91.95
2022-10-08T07:11:17.026Z,95.70
2022-10-08T07:13:44.838Z,96.93
2022-10-08T07:16:20.548Z,91.40
2022-10-08T07:21:17.955Z,102.82
2022-10-08T07:23:44.988Z,88.43
2022-10-08T07:26:18.254Z,94.57
2022-10-08T07:29:04.296Z,94.25
2022-10-08T07:31:33.757Z,87.75
2022-10-08T07:34:02.694Z,93.10
2022-10-08T07:36:30.341Z,92.80
2022-10-08T07:39:01.839Z,82.32
2022-10-08T07:41:30.032Z,85.68
2022-10-08T07:43:59.767Z,84.97
2022-10-08T07:46:29.385Z,91.03
2022-10-08T07:48:59.156Z,87.57
2022-10-08T07:51:27.231Z,88.43
2022-10-08T07:53:55.212Z,82.18
2022-10-08T07:56:25.318Z,77.43
2022-10-08T07:58:52.320Z,77.30
2022-10-08T08:01:21.823Z,80.45
2022-10-08T08:03:59.413Z,89.80
2022-10-08T08:06:27.886Z,88.28
2022-10-08T08:08:54.841Z,83.93
2022-10-08T08:11:25.254Z,84.07
2022-10-08T08:13:56.565Z,83.65
2022-10-08T08:16:25.967Z,87.40
2022-10-08T08:18:55.910Z,79.38
2022-10-08T08:21:26.875Z,81.80
2022-10-08T08:23:55.704Z,79.72
2022-10-08T08:26:28.792Z,82.93
2022-10-08T08:28:58.066Z,77.47
2022-10-08T08:31:25.978Z,71.80
2022-10-08T08:33:55.506Z,81.68
2022-10-08T08:36:27.999Z,76.78
2022-10-08T08:38:54.717Z,75.00
2022-10-08T08:41:23.356Z,76.13
2022-10-08T08:43:58.604Z,70.88
2022-10-08T08:46:27.894Z,62.67
2022-10-08T08:48:58.292Z,71.57
2022-10-08T08:51:24.959Z,68.55
2022-10-08T08:53:51.688Z,69.78
2022-10-08T08:56:22.756Z,76.85
2022-10-08T08:59:00.149Z,72.55
2022-10-08T09:01:35.910Z,72.05
2022-10-08T09:04:11.832Z,69.68
2022-10-08T09:06:39.829Z,78.15
2022-10-08T09:09:24.898Z,80.90
2022-10-08T09:11:51.601Z,81.82
2022-10-08T09:14:33.558Z,84.03
2022-10-08T09:17:09.576Z,81.93
2022-10-08T09:19:39.172Z,68.13
2022-10-08T09:22:23.472Z,72.53
2022-10-08T09:24:55.190Z,70.53
2022-10-08T09:27:21.796Z,81.10
2022-10-08T09:29:48.448Z,78.97
2022-10-08T09:32:19.048Z,66.20
2022-10-08T09:34:48.382Z,77.07
2022-10-08T09:37:25.925Z,81.55
2022-10-08T09:40:08.417Z,70.78
2022-10-08T09:42:35.024Z,82.05
2022-10-08T09:45:04.002Z,78.20
2022-10-08T09:47:31.008Z,76.60
2022-10-08T09:50:19.130Z,73.88
2022-10-08T09:52:49.921Z,76.95
2022-10-08T09:55:16.727Z,70.03
2022-10-08T09:57:46.959Z,80.28
2022-10-08T10:00:31.772Z,80.13
2022-10-08T10:03:00.325Z,81.03
2022-10-08T10:05:29.875Z,80.07
2022-10-08T10:07:57.022Z,82.63
2022-10-08T10:10:24.593Z,77.18
2022-10-08T10:12:56.362Z,75.50
2022-10-08T10:15:31.534Z,82.88
2022-10-08T10:18:02.350Z,79.68
2022-10-08T10:20:36.536Z,84.88
2022-10-08T10:23:11.261Z,83.88
2022-10-08T10:25:46.075Z,81.57
2022-10-08T10:28:21.108Z,78.05
2022-10-08T10:31:03.184Z,80.80
2022-10-08T10:33:34.382Z,77.80
2022-10-08T10:36:06.859Z,81.47
2022-10-08T10:38:43.190Z,70.93
2022-10-08T10:41:11.041Z,70.50
2022-10-08T10:43:45.067Z,77.47
2022-10-08T10:46:27.014Z,74.22
2022-10-08T10:48:55.220Z,72.28
2022-10-08T10:51:36.976Z,67.30
2022-10-08T10:54:11.512Z,72.65
2022-10-08T10:56:46.117Z,77.43
2022-10-08T10:59:31.075Z,71.32
2022-10-08T11:02:03.961Z,78.72
2022-10-08T11:04:43.085Z,75.22
2022-10-08T11:07:25.411Z,72.60
2022-10-08T11:10:11.954Z,71.80
2022-10-08T11:12:53.020Z,74.88
2022-10-08T11:15:30.814Z,72.18
2022-10-08T11:18:23.303Z,69.05
2022-10-08T11:21:21.662Z,74.25
2022-10-08T11:24:03.508Z,71.93
2022-10-08T11:26:34.247Z,78.20
2022-10-08T11:29:16.067Z,73.50
2022-10-08T11:31:46.397Z,68.97
2022-10-08T11:34:21.822Z,66.13
2022-10-08T11:37:15.575Z,66.07
2022-10-08T11:40:12.732Z,69.95
2022-10-08T11:42:56.390Z,70.97
2022-10-08T11:45:23.089Z,62.65
2022-10-08T11:47:54.561Z,69.07
2022-10-08T11:50:23.545Z,62.38
2022-10-08T11:52:50.588Z,65.68
2022-10-08T11:55:25.730Z,67.93
2022-10-08T11:58:07.583Z,56.40
2022-10-08T12:00:45.333Z,59.03
2022-10-08T12:03:33.298Z,57.55
2022-10-08T12:06:15.279Z,56.10
2022-10-08T12:08:53.242Z,54.97
2022-10-08T12:11:38.638Z,56.67
2022-10-08T12:14:28.457Z,51.38
2022-10-08T12:16:55.018Z,48.75
2022-10-08T12:19:38.005Z,51.33
2022-10-08T12:22:25.254Z,55.13
2022-10-08T12:24:57.714Z,49.83
2022-10-08T12:27:27.476Z,50.08
2022-10-08T12:30:16.873Z,54.13
2022-10-08T12:32:43.522Z,57.67
2022-10-08T12:35:28.486Z,51.95
2022-10-08T12:38:30.482Z,45.05
2022-10-08T12:41:11.963Z,43.67
2022-10-08T12:44:00.785Z,46.03
2022-10-08T12:46:57.893Z,53.80
2022-10-08T12:49:30.687Z,47.20
2022-10-08T12:51:57.602Z,44.67
2022-10-08T12:54:27.921Z,51.47
2022-10-08T12:56:55.541Z,50.45
2022-10-08T12:59:25.377Z,53.22
2022-10-08T13:01:53.942Z,49.35
2022-10-08T13:04:26.204Z,48.67
2022-10-08T13:06:55.203Z,47.50
2022-10-08T13:09:21.816Z,47.25
2022-10-08T13:11:53.716Z,49.95
2022-10-08T13:14:24.385Z,44.53
2022-10-08T13:16:51.357Z,46.30
2022-10-08T13:19:20.187Z,48.70
2022-10-08T13:22:05.140Z,42.42
2022-10-08T13:24:40.760Z,48.00
2022-10-08T13:27:23.701Z,45.83
2022-10-08T13:29:50.362Z,43.35
2022-10-08T13:32:21.853Z,45.90
2022-10-08T13:34:52.469Z,50.95
2022-10-08T13:37:27.836Z,48.10
2022-10-08T13:39:58.846Z,52.17
2022-10-08T13:42:29.893Z,44.65
2022-10-08T13:44:59.172Z,46.38
2022-10-08T13:47:27.397Z,44.70
2022-10-08T13:50:00.350Z,42.30
2022-10-08T13:52:29.718Z,41.80
2022-10-08T13:55:01.494Z,46.60
2022-10-08T13:57:28.161Z,40.22
2022-10-08T13:59:55.239Z,45.75
2022-10-08T14:02:21.947Z,42.22
2022-10-08T14:04:48.686Z,48.55
2022-10-08T14:07:16.301Z,37.88
2022-10-08T14:09:42.939Z,44.70
2022-10-08T14:12:10.241Z,42.03
2022-10-08T14:14:36.921Z,42.03
2022-10-08T14:17:03.519Z,47.25
2022-10-08T14:19:30.227Z,51.03
2022-10-08T14:21:57.387Z,45.97
2022-10-08T14:24:24.056Z,48.35
2022-10-08T14:26:50.874Z,44.35
2022-10-08T14:29:17.558Z,40.45
2022-10-08T14:31:44.290Z,34.63
2022-10-08T14:34:10.988Z,36.65
2022-10-08T14:36:41.118Z,38.70
2022-10-08T14:39:09.951Z,43.15
2022-10-08T14:41:37.002Z,39.33
2022-10-08T14:44:03.654Z,35.28
2022-10-08T14:46:30.340Z,36.90
2022-10-08T14:48:57.084Z,31.23
2022-10-08T14:51:23.821Z,38.00
2022-10-08T14:53:52.279Z,39.63
2022-10-08T14:56:18.938Z,42.55
2022-10-08T14:58:45.800Z,42.15
2022-10-08T15:01:12.437Z,40.22
2022-10-08T15:03:39.098Z,38.30
2022-10-08T15:06:05.967Z,35.97
2022-10-08T15:08:33.573Z,36.00
2022-10-08T15:11:02.302Z,37.13
2022-10-08T15:13:29.184Z,38.30
2022-10-08T15:15:55.830Z,33.17
2022-10-08T15:18:23.003Z,45.15
2022-10-08T15:20:59.256Z,41.70
2022-10-08T15:23:27.048Z,41.63
2022-10-08T15:26:11.993Z,34.60
2022-10-08T15:28:38.690Z,40.78
2022-10-08T15:31:12.832Z,50.53
2022-10-08T15:33:40.937Z,53.58
2022-10-08T15:36:31.942Z,48.63
2022-10-08T15:39:08.713Z,42.50
2022-10-08T15:41:37.200Z,46.00
2022-10-08T15:44:09.494Z,38.10
2022-10-08T15:46:36.954Z,39.78
2022-10-08T15:49:03.991Z,40.45
2022-10-08T15:51:31.753Z,39.60
2022-10-08T15:53:59.114Z,42.38
2022-10-08T15:56:26.156Z,46.47
2022-10-08T15:58:53.374Z,44.30
2022-10-08T16:01:23.481Z,46.80
2022-10-08T16:03:52.565Z,49.88
2022-10-08T16:06:22.423Z,50.33
2022-10-08T16:08:49.402Z,45.88
2022-10-08T16:11:23.130Z,48.70
2022-10-08T16:13:55.751Z,42.53
2022-10-08T16:16:26.816Z,40.25
2022-10-08T16:19:01.199Z,45.88
2022-10-08T16:21:33.686Z,43.70
2022-10-08T16:24:00.872Z,43.97
2022-10-08T16:26:29.297Z,43.13
2022-10-08T16:28:59.035Z,43.72
2022-10-08T16:31:28.231Z,53.88
2022-10-08T16:33:57.252Z,63.33
2022-10-08T16:36:24.629Z,70.00
2022-10-08T16:38:55.129Z,63.95
2022-10-08T16:41:23.741Z,66.13
2022-10-08T16:43:53.187Z,46.05
2022-10-08T16:46:22.531Z,46.60
2022-10-08T16:48:52.234Z,55.60
2022-10-08T16:51:19.681Z,51.58
2022-10-08T16:53:49.523Z,43.75
2022-10-08T16:56:17.295Z,38.20
2022-10-08T16:58:44.015Z,49.80
2022-10-08T17:01:10.744Z,45.38
2022-10-08T17:03:37.655Z,49.10
2022-10-08T17:06:04.817Z,49.80
2022-10-08T17:08:31.495Z,43.53
2022-10-08T17:11:03.765Z,47.90
2022-10-08T17:13:30.436Z,49.30
2022-10-08T17:15:59.321Z,62.90
2022-10-08T17:18:27.542Z,99.55
2022-10-08T17:20:55.999Z,82.20
2022-10-08T17:23:24.556Z,51.63
2022-10-08T17:25:57.196Z,51.53
2022-10-08T17:28:29.442Z,39.33
2022-10-08T17:30:58.988Z,40.80
2022-10-08T17:33:28.173Z,41.67
2022-10-08T17:36:05.732Z,37.15
2022-10-08T17:38:33.605Z,31.55
2022-10-08T17:41:00.628Z,39.58
2022-10-08T17:43:27.394Z,35.55
2022-10-08T17:45:54.119Z,36.38
2022-10-08T17:48:21.109Z,42.47
2022-10-08T17:50:47.792Z,28.63
2022-10-08T17:53:14.518Z,33.83
2022-10-08T17:55:41.184Z,30.83
2022-10-08T17:58:07.859Z,32.10
2022-10-08T18:00:34.510Z,30.02
2022-10-08T18:03:01.332Z,30.80
2022-10-08T18:05:28.069Z,29.48
2022-10-08T18:07:54.704Z,31.02
2022-10-08T18:10:21.487Z,27.20
2022-10-08T18:12:48.690Z,34.28
2022-10-08T18:15:15.729Z,37.58
2022-10-08T18:17:42.382Z,31.63
2022-10-08T18:20:09.187Z,28.50
2022-10-08T18:22:38.593Z,31.25
2022-10-08T18:25:05.758Z,33.38
2022-10-08T18:27:32.392Z,32.80
2022-10-08T18:29:59.068Z,38.85
2022-10-08T18:32:25.756Z,38.90
2022-10-08T18:34:52.425Z,44.85
2022-10-08T18:37:20.623Z,33.70
2022-10-08T18:39:47.385Z,43.15
2022-10-08T18:42:14.023Z,31.20
2022-10-08T18:44:40.746Z,27.95
2022-10-08T18:47:07.786Z,32.55
2022-10-08T18:49:35.114Z,34.22
2022-10-08T18:52:02.163Z,35.60
2022-10-08T18:54:28.993Z,26.42
2022-10-08T18:56:56.905Z,32.05
2022-10-08T18:59:24.195Z,30.23
2022-10-08T19:01:50.977Z,30.15
2022-10-08T19:04:21.182Z,34.00
2022-10-08T19:06:50.398Z,32.50
2022-10-08T19:09:17.302Z,61.55
2022-10-08T19:11:47.697Z,43.63
2022-10-08T19:14:17.598Z,30.27
2022-10-08T19:16:45.235Z,28.95
2022-10-08T19:19:22.206Z,37.22
2022-10-08T19:21:50.184Z,30.17
2022-10-08T19:24:19.984Z,32.95
2022-10-08T19:26:47.609Z,31.75
2022-10-08T19:29:23.706Z,36.33
2022-10-08T19:31:50.600Z,30.35
2022-10-08T19:34:20.743Z,32.78
2022-10-08T19:36:48.329Z,33.75
2022-10-08T19:39:18.415Z,34.10
2022-10-08T19:41:45.760Z,36.70
2022-10-08T19:44:12.843Z,34.25
2022-10-08T19:46:39.627Z,33.15
2022-10-08T19:49:07.854Z,40.22
2022-10-08T19:51:35.594Z,32.08
2022-10-08T19:54:02.387Z,31.58
2022-10-08T19:56:31.030Z,28.13
2022-10-08T19:58:57.992Z,32.00
2022-10-08T20:01:28.773Z,36.55
2022-10-08T20:03:56.990Z,34.58
2022-10-08T20:06:26.812Z,34.92
2022-10-08T20:08:55.169Z,38.75
2022-10-08T20:11:22.505Z,37.75
2022-10-08T20:13:51.186Z,38.03
2022-10-08T20:16:24.952Z,32.72
2022-10-08T20:18:54.439Z,41.40
2022-10-08T20:21:22.730Z,38.53
2022-10-08T20:23:52.877Z,35.92
2022-10-08T20:26:25.289Z,40.28
2022-10-08T20:28:54.703Z,42.47
2022-10-08T20:31:24.435Z,41.58
2022-10-08T20:34:02.273Z,43.88
2022-10-08T20:36:30.100Z,40.35
2022-10-08T20:38:57.885Z,41.80
2022-10-08T20:41:30.602Z,42.53
2022-10-08T20:44:02.937Z,40.22
2022-10-08T20:46:31.344Z,46.20
2022-10-08T20:48:58.283Z,45.97
2022-10-08T20:51:26.459Z,49.85
2022-10-08T20:53:56.730Z,44.30
2022-10-08T20:56:24.071Z,38.55
2022-10-08T20:58:51.326Z,38.90
2022-10-08T21:01:20.959Z,44.67
2022-10-08T21:03:48.014Z,38.67
2022-10-08T21:06:18.783Z,44.58
2022-10-08T21:08:47.598Z,43.72
2022-10-08T21:11:18.138Z,38.85
2022-10-08T21:13:45.437Z,42.70
2022-10-08T21:16:17.115Z,44.78
2022-10-08T21:18:44.236Z,45.65
2022-10-08T21:21:14.124Z,45.80
2022-10-08T21:23:41.788Z,44.78
2022-10-08T21:26:11.826Z,46.88
2022-10-08T21:28:39.448Z,44.17
2022-10-08T21:31:07.864Z,47.58
2022-10-08T21:33:36.086Z,47.70
2022-10-08T21:36:03.943Z,52.28
2022-10-08T21:38:36.530Z,46.40
2022-10-08T21:41:11.775Z,45.30
2022-10-08T21:43:40.157Z,52.95
2022-10-08T21:46:08.133Z,51.03
2022-10-08T21:48:34.869Z,48.20
2022-10-08T21:51:07.253Z,52.83
2022-10-08T21:53:35.894Z,48.20
2022-10-08T21:56:06.782Z,50.08
2022-10-08T21:58:39.095Z,48.78
2022-10-08T22:01:18.023Z,53.47
2022-10-08T22:03:44.726Z,48.83
2022-10-08T22:06:11.366Z,52.17
2022-10-08T22:08:38.087Z,51.58
2022-10-08T22:11:06.142Z,52.45
2022-10-08T22:13:33.284Z,60.47
2022-10-08T22:16:02.433Z,62.58
2022-10-08T22:18:30.671Z,59.17
2022-10-08T22:21:02.230Z,57.45
2022-10-08T22:23:28.866Z,57.13
2022-10-08T22:25:57.698Z,55.13
2022-10-08T22:28:25.675Z,57.83
2022-10-08T22:30:52.505Z,60.97
2022-10-08T22:33:19.919Z,59.78
2022-10-08T22:35:47.445Z,56.75
2022-10-08T22:38:14.184Z,66.40
2022-10-08T22:40:40.929Z,63.72
2022-10-08T22:43:07.593Z,63.67
2022-10-08T22:45:39.528Z,59.83
2022-10-08T22:48:06.234Z,54.45
2022-10-08T22:50:35.639Z,52.45
2022-10-08T22:53:02.499Z,57.42
2022-10-08T22:55:29.632Z,58.25
2022-10-08T22:57:57.220Z,55.55
2022-10-08T23:00:24.043Z,62.80
2022-10-08T23:02:51.004Z,78.65
2022-10-08T23:05:17.878Z,60.03
2022-10-08T23:07:44.505Z,61.25
2022-10-08T23:10:11.129Z,56.75
2022-10-08T23:12:37.929Z,60.45
2022-10-08T23:15:04.841Z,57.33
2022-10-08T23:17:31.525Z,57.53
2022-10-08T23:19:58.210Z,54.35
2022-10-08T23:22:25.225Z,63.22
2022-10-08T23:24:51.844Z,59.22
2022-10-08T23:27:18.469Z,60.92
2022-10-08T23:29:45.149Z,65.00
2022-10-08T23:32:11.783Z,58.33
2022-10-08T23:34:38.442Z,60.45
2022-10-08T23:37:05.036Z,56.05
2022-10-08T23:39:31.637Z,54.60
2022-10-08T23:41:59.642Z,63.60
2022-10-08T23:44:26.361Z,53.97
2022-10-08T23:46:52.996Z,58.90
2022-10-08T23:49:19.685Z,52.83
2022-10-08T23:51:46.471Z,56.05
2022-10-08T23:54:13.095Z,49.17
2022-10-08T23:56:39.669Z,53.65
2022-10-08T23:59:06.390Z,51.92
